| time (UTC) | temp F | wind direction | speed knots | gust knots | rain 1hr in | rain 24hr in | rain mn in | humidity % | barometer mb |
| 20260831054440 | 76 | 84 | 0.9 | 11.3 | 0.00 | 0.00 | 0.00 | 46 | 1027.3 |
| 20260831053941 | 76 | 84 | 1.7 | 11.3 | 0.00 | 0.00 | 0.00 | 46 | 1027.2 |
| 20260831053440 | 76 | 87 | 1.7 | 9.6 | 0.00 | 0.00 | 0.00 | 45 | 1027.3 |
| 20260831052935 | 76 | 87 | 0.9 | 7.8 | 0.00 | 0.00 | 0.00 | 44 | 1027.3 |
| 20260831052429 | 76 | 87 | 0.0 | 6.1 | 0.00 | 0.00 | 0.00 | 44 | 1027.3 |
| 20260831051923 | 76 | 86 | 1.7 | 13.0 | 0.00 | 0.00 | 0.00 | 44 | 1027.3 |
| 20260831051423 | 76 | 87 | 3.5 | 14.8 | 0.00 | 0.00 | 0.00 | 44 | 1027.3 |
| 20260831050923 | 76 | 87 | 1.7 | 14.8 | 0.00 | 0.00 | 0.00 | 44 | 1027.3 |
| 20260831050652 | 76 | 89 | 0.0 | 9.6 | 0.00 | 0.00 | 0.00 | 44 | 1027.3 |
| 20260831045923 | 76 | 89 | 0.0 | 6.1 | 0.00 | 0.00 | 0.00 | 44 | 1027.4 |
| 20260831045422 | 76 | 89 | 0.0 | 7.8 | 0.00 | 0.00 | 0.00 | 44 | 1027.4 |
| 20260831044922 | 76 | 89 | 0.9 | 13.9 | 0.00 | 0.00 | 0.00 | 44 | 1027.4 |
| 20260831044422 | 76 | 89 | 0.9 | 13.9 | 0.00 | 0.00 | 0.00 | 44 | 1027.5 |
| 20260831043921 | 76 | 89 | 0.0 | 5.2 | 0.00 | 0.00 | 0.00 | 43 | 1027.6 |
| 20260831043419 | 76 | 89 | 0.0 | 5.2 | 0.00 | 0.00 | 0.00 | 43 | 1027.6 |
| 20260831042921 | 76 | 89 | 0.0 | 1.7 | 0.00 | 0.00 | 0.00 | 43 | 1027.6 |
| 20260831042419 | 76 | 89 | 0.0 | 6.1 | 0.00 | 0.00 | 0.00 | 44 | 1027.6 |
| 20260831041919 | 76 | 89 | 0.0 | 6.1 | 0.00 | 0.00 | 0.00 | 43 | 1027.6 |
| 20260831041520 | 76 | 89 | 0.0 | 2.6 | 0.00 | 0.00 | 0.00 | 44 | 1027.7 |
| 20260831040420 | 76 | 89 | 0.0 | 5.2 | 0.00 | 0.00 | 0.00 | 44 | 1027.7 |
| 20260831035920 | 76 | 89 | 0.9 | 9.6 | 0.00 | 0.00 | 0.00 | 44 | 1027.8 |
| 20260831035421 | 76 | 89 | 1.7 | 9.6 | 0.00 | 0.00 | 0.00 | 43 | 1027.8 |
| 20260831034921 | 76 | 89 | 1.7 | 11.3 | 0.00 | 0.00 | 0.00 | 43 | 1027.9 |
| 20260831034639 | 76 | 89 | 1.7 | 11.3 | 0.00 | 0.00 | 0.00 | 43 | 1027.9 |
| 20260831033920 | 76 | 89 | 2.6 | 12.2 | 0.00 | 0.00 | 0.00 | 43 | 1028.0 |
| 20260831033420 | 76 | 89 | 3.5 | 13.9 | 0.00 | 0.00 | 0.00 | 44 | 1028.0 |
| 20260831032919 | 76 | 89 | 2.6 | 13.9 | 0.00 | 0.00 | 0.00 | 44 | 1028.1 |
| 20260831032638 | 76 | 89 | 1.7 | 11.3 | 0.00 | 0.00 | 0.00 | 45 | 1028.1 |
| 20260831031915 | 76 | 89 | 1.7 | 11.3 | 0.00 | 0.00 | 0.00 | 45 | 1028.2 |
| 20260831031415 | 76 | 89 | 0.9 | 10.4 | 0.00 | 0.00 | 0.00 | 45 | 1028.3 |
| 20260831030915 | 75 | 89 | 0.9 | 7.8 | 0.00 | 0.00 | 0.00 | 45 | 1028.3 |
| 20260831030415 | 75 | 89 | 2.6 | 12.2 | 0.00 | 0.00 | 0.00 | 46 | 1028.4 |
| 20260831025917 | 75 | 89 | 0.9 | 12.2 | 0.00 | 0.00 | 0.00 | 45 | 1028.5 |
| 20260831025412 | 75 | 89 | 0.0 | 1.7 | 0.00 | 0.00 | 0.00 | 46 | 1028.5 |
| 20260831024909 | 75 | 89 | 0.0 | 1.7 | 0.00 | 0.00 | 0.00 | 45 | 1028.7 |
| 20260831024410 | 75 | 89 | 0.9 | 8.7 | 0.00 | 0.00 | 0.00 | 46 | 1028.7 |
| 20260831023910 | 75 | 89 | 1.7 | 9.6 | 0.00 | 0.00 | 0.00 | 45 | 1028.8 |
| 20260831023410 | 75 | 89 | 0.9 | 10.4 | 0.00 | 0.00 | 0.00 | 46 | 1028.9 |
| 20260831022911 | 74 | 89 | 0.0 | 10.4 | 0.00 | 0.00 | 0.00 | 48 | 1029.0 |
| 20260831022410 | 74 | 89 | 0.0 | 3.5 | 0.00 | 0.00 | 0.00 | 48 | 1029.1 |
| 20260831021910 | 74 | 89 | 0.9 | 7.0 | 0.00 | 0.00 | 0.00 | 48 | 1029.2 |
| 20260831021406 | 74 | 89 | 0.0 | 7.0 | 0.00 | 0.00 | 0.00 | 50 | 1029.3 |
| 20260831020907 | 74 | 89 | 0.0 | 2.6 | 0.00 | 0.00 | 0.00 | 50 | 1029.4 |
| 20260831020404 | 73 | 89 | 0.9 | 3.5 | 0.00 | 0.00 | 0.00 | 52 | 1029.4 |
| 20260831020122 | 73 | 89 | 0.9 | 9.6 | 0.00 | 0.00 | 0.00 | 52 | 1029.4 |
| 20260831015400 | 73 | 89 | 0.9 | 9.6 | 0.00 | 0.00 | 0.00 | 52 | 1029.6 |
| 20260831014901 | 73 | 89 | 0.9 | 8.7 | 0.00 | 0.00 | 0.00 | 52 | 1029.8 |
| 20260831014401 | 72 | 89 | 0.9 | 8.7 | 0.00 | 0.00 | 0.00 | 53 | 1029.8 |
| 20260831014001 | 72 | 89 | 0.9 | 11.3 | 0.00 | 0.00 | 0.00 | 54 | 1029.9 |
| 20260831012901 | 72 | 89 | 0.0 | 1.7 | 0.00 | 0.00 | 0.00 | 54 | 1030.1 |
| 20260831012403 | 71 | 89 | 0.0 | 1.7 | 0.00 | 0.00 | 0.00 | 55 | 1030.2 |
| 20260831011900 | 71 | 89 | 0.0 | 0.0 | 0.00 | 0.00 | 0.00 | 55 | 1030.3 |
| 20260831011358 | 71 | 89 | 0.0 | 0.0 | 0.00 | 0.00 | 0.00 | 55 | 1030.4 |
| 20260831010900 | 70 | 89 | 0.0 | 0.0 | 0.00 | 0.00 | 0.00 | 56 | 1030.4 |
| 20260831010358 | 70 | 89 | 0.0 | 0.0 | 0.00 | 0.00 | 0.00 | 57 | 1030.5 |
| 20260831005859 | 69 | 89 | 0.0 | 0.0 | 0.00 | 0.00 | 0.00 | 57 | 1030.6 |
| 20260831005357 | 69 | 89 | 0.0 | 0.0 | 0.00 | 0.00 | 0.00 | 58 | 1030.7 |
| 20260831004900 | 69 | 89 | 0.0 | 0.0 | 0.00 | 0.00 | 0.00 | 59 | 1030.7 |
| 20260831004358 | 68 | 89 | 0.0 | 0.0 | 0.00 | 0.00 | 0.00 | 60 | 1030.8 |
| 20260831003901 | 68 | 89 | 0.0 | 0.0 | 0.00 | 0.00 | 0.00 | 60 | 1030.9 |
| 20260831003355 | 68 | 89 | 0.0 | 0.0 | 0.00 | 0.00 | 0.00 | 61 | 1030.9 |
| 20260831002854 | 67 | 89 | 0.0 | 0.0 | 0.00 | 0.00 | 0.00 | 63 | 1031.0 |
| 20260831002621 | 67 | 89 | 0.0 | 0.0 | 0.00 | 0.00 | 0.00 | 64 | 1030.9 |
| 20260831001854 | 66 | 89 | 0.0 | 0.0 | 0.00 | 0.00 | 0.00 | 64 | 1031.0 |
| 20260831001354 | 66 | 89 | 0.0 | 0.0 | 0.00 | 0.00 | 0.00 | 65 | 1031.0 |
| 20260831000854 | 66 | 89 | 0.0 | 0.0 | 0.00 | 0.00 | 0.00 | 65 | 1031.0 |
| 20260831000355 | 65 | 89 | 0.0 | 0.0 | 0.00 | 0.00 | 0.00 | 66 | 1030.9 |
| 20260830235853 | 64 | 89 | 0.0 | 0.0 | 0.00 | 0.00 | 0.00 | 69 | 1030.9 |
| 20260830235842 | 64 | 89 | 0.0 | 0.0 | 0.00 | 0.00 | 0.00 | 69 | 1030.9 |
| 20260830235112 | 63 | 89 | 0.0 | 0.0 | 0.00 | 0.00 | 0.00 | 70 | 1030.9 |
| 20260830234351 | 62 | 89 | 0.0 | 0.0 | 0.00 | 0.00 | 0.00 | 70 | 1030.9 |
| 20260830233851 | 62 | 89 | 0.0 | 0.0 | 0.00 | 0.00 | 0.00 | 70 | 1030.9 |
| 20260830233613 | 61 | 89 | 0.0 | 0.0 | 0.00 | 0.00 | 0.00 | 70 | 1030.9 |
| 20260830232850 | 61 | 89 | 0.0 | 0.0 | 0.00 | 0.00 | 0.00 | 70 | 1031.0 |
| 20260830232351 | 60 | 89 | 0.0 | 0.0 | 0.00 | 0.00 | 0.00 | 70 | 1031.0 |
| 20260830231850 | 60 | 89 | 0.0 | 0.0 | 0.00 | 0.00 | 0.00 | 71 | 1031.0 |
| 20260830231349 | 60 | 89 | 0.0 | 0.0 | 0.00 | 0.00 | 0.00 | 71 | 1031.1 |
| 20260830230850 | 59 | 89 | 0.0 | 2.6 | 0.00 | 0.00 | 0.00 | 72 | 1031.1 |
| 20260830230345 | 59 | 89 | 0.0 | 2.6 | 0.00 | 0.00 | 0.00 | 74 | 1031.1 |
| 20260830225845 | 58 | 89 | 0.0 | 0.0 | 0.00 | 0.00 | 0.00 | 75 | 1031.0 |
| 20260830225346 | 57 | 89 | 0.0 | 0.0 | 0.00 | 0.00 | 0.00 | 76 | 1031.0 |
| 20260830225109 | 56 | 89 | 0.0 | 0.0 | 0.00 | 0.00 | 0.00 | 78 | 1031.0 |
| 20260830224614 | 56 | 89 | 0.0 | 0.0 | 0.00 | 0.00 | 0.00 | 79 | 1031.0 |
| 20260830224104 | 55 | 89 | 0.0 | 0.0 | 0.00 | 0.00 | 0.00 | 80 | 1030.9 |
| 20260830223345 | 55 | 89 | 0.0 | 0.0 | 0.00 | 0.00 | 0.00 | 80 | 1031.0 |
| 20260830222845 | 54 | 89 | 0.0 | 0.0 | 0.00 | 0.00 | 0.00 | 81 | 1031.0 |
| 20260830222347 | 54 | 89 | 0.0 | 0.0 | 0.00 | 0.00 | 0.00 | 82 | 1031.1 |
| 20260830221844 | 53 | 89 | 0.0 | 0.0 | 0.00 | 0.00 | 0.00 | 83 | 1031.1 |
| 20260830221340 | 53 | 89 | 0.0 | 0.0 | 0.00 | 0.00 | 0.00 | 83 | 1031.1 |
| 20260830220831 | 52 | 89 | 0.0 | 0.0 | 0.00 | 0.00 | 0.00 | 84 | 1031.1 |
| 20260830220331 | 52 | 89 | 0.0 | 0.0 | 0.00 | 0.00 | 0.00 | 85 | 1031.0 |
| 20260830215828 | 51 | 89 | 0.0 | 0.0 | 0.00 | 0.00 | 0.00 | 85 | 1030.9 |
| 20260830215329 | 51 | 89 | 0.0 | 0.0 | 0.00 | 0.00 | 0.00 | 86 | 1030.8 |
| 20260830214831 | 51 | 89 | 0.0 | 0.0 | 0.00 | 0.00 | 0.00 | 87 | 1030.7 |
| 20260830214330 | 50 | 89 | 0.0 | 0.0 | 0.00 | 0.00 | 0.00 | 87 | 1030.7 |
| 20260830213830 | 50 | 89 | 0.0 | 0.0 | 0.00 | 0.00 | 0.00 | 87 | 1030.7 |
| 20260830213325 | 49 | 89 | 0.0 | 0.0 | 0.00 | 0.00 | 0.00 | 87 | 1030.7 |
| 20260830213045 | 49 | 89 | 0.0 | 0.0 | 0.00 | 0.00 | 0.00 | 87 | 1030.8 |
| 20260830212321 | 49 | 89 | 0.0 | 0.0 | 0.00 | 0.00 | 0.00 | 88 | 1030.7 |
| 20260830211822 | 49 | 89 | 0.0 | 0.0 | 0.00 | 0.00 | 0.00 | 87 | 1030.6 |
| 20260830211319 | 48 | 89 | 0.0 | 0.0 | 0.00 | 0.00 | 0.00 | 87 | 1030.7 |
| 20260830210820 | 48 | 89 | 0.0 | 0.0 | 0.00 | 0.00 | 0.00 | 87 | 1030.7 |
| 20260830210319 | 48 | 89 | 0.0 | 0.0 | 0.00 | 0.00 | 0.00 | 87 | 1030.7 |
| 20260830205820 | 48 | 89 | 0.0 | 0.0 | 0.00 | 0.00 | 0.00 | 87 | 1030.6 |
| 20260830205321 | 48 | 89 | 0.0 | 0.0 | 0.00 | 0.00 | 0.00 | 87 | 1030.5 |
| 20260830204814 | 48 | 89 | 0.0 | 0.0 | 0.00 | 0.00 | 0.00 | 87 | 1030.4 |
| 20260830204309 | 48 | 89 | 0.0 | 0.0 | 0.00 | 0.00 | 0.00 | 87 | 1030.3 |
| 20260830203802 | 48 | 89 | 0.0 | 0.0 | 0.00 | 0.00 | 0.00 | 87 | 1030.3 |
| 20260830203257 | 48 | 89 | 0.0 | 0.0 | 0.00 | 0.00 | 0.00 | 87 | 1030.2 |
| 20260830203248 | 48 | 89 | 0.0 | 0.0 | 0.00 | 0.00 | 0.00 | 87 | 1030.2 |
| 20260830202244 | 48 | 89 | 0.0 | 0.0 | 0.00 | 0.00 | 0.00 | 87 | 1030.1 |
| 20260830201740 | 48 | 89 | 0.0 | 0.0 | 0.00 | 0.00 | 0.00 | 86 | 1030.1 |
| 20260830201233 | 48 | 89 | 0.0 | 0.0 | 0.00 | 0.00 | 0.00 | 86 | 1030.0 |
| 20260830200726 | 48 | 89 | 0.0 | 0.0 | 0.00 | 0.00 | 0.00 | 86 | 1030.1 |
| 20260830200455 | 48 | 89 | 0.0 | 0.0 | 0.00 | 0.00 | 0.00 | 86 | 1030.1 |
| 20260830195935 | 48 | 89 | 0.0 | 0.0 | 0.00 | 0.00 | 0.00 | 86 | 1030.0 |
| 20260830195211 | 48 | 89 | 0.0 | 0.0 | 0.00 | 0.00 | 0.00 | 86 | 1030.0 |
| 20260830194702 | 48 | 89 | 0.0 | 0.0 | 0.00 | 0.00 | 0.00 | 86 | 1030.0 |
| 20260830194156 | 48 | 89 | 0.0 | 0.0 | 0.00 | 0.00 | 0.00 | 86 | 1030.0 |
| 20260830193650 | 48 | 89 | 0.0 | 0.0 | 0.00 | 0.00 | 0.00 | 86 | 1029.9 |
| 20260830193144 | 48 | 89 | 0.0 | 0.0 | 0.00 | 0.00 | 0.00 | 85 | 1029.8 |
| 20260830192639 | 48 | 89 | 0.0 | 0.0 | 0.00 | 0.00 | 0.00 | 85 | 1029.7 |
| 20260830192131 | 48 | 89 | 0.0 | 0.0 | 0.00 | 0.00 | 0.00 | 85 | 1029.7 |
| 20260830191626 | 49 | 89 | 0.0 | 0.0 | 0.00 | 0.00 | 0.00 | 85 | 1029.7 |
| 20260830191120 | 49 | 89 | 0.0 | 0.0 | 0.00 | 0.00 | 0.00 | 85 | 1029.7 |
| 20260830190831 | 49 | 89 | 0.0 | 0.0 | 0.00 | 0.00 | 0.00 | 85 | 1029.6 |
| 20260830190110 | 49 | 89 | 0.0 | 0.0 | 0.00 | 0.00 | 0.00 | 85 | 1029.5 |
| 20260830185602 | 49 | 89 | 0.0 | 0.0 | 0.00 | 0.00 | 0.00 | 85 | 1029.5 |
| 20260830185056 | 49 | 89 | 0.0 | 0.0 | 0.00 | 0.00 | 0.00 | 85 | 1029.5 |
| 20260830184550 | 49 | 89 | 0.0 | 0.0 | 0.00 | 0.00 | 0.00 | 85 | 1029.4 |
| 20260830184045 | 49 | 89 | 0.0 | 0.0 | 0.00 | 0.00 | 0.00 | 85 | 1029.4 |
| 20260830183811 | 49 | 89 | 0.0 | 0.0 | 0.00 | 0.00 | 0.00 | 86 | 1029.5 |
| 20260830183041 | 49 | 89 | 0.0 | 0.0 | 0.00 | 0.00 | 0.00 | 86 | 1029.5 |
| 20260830182540 | 49 | 89 | 0.0 | 0.0 | 0.00 | 0.00 | 0.00 | 86 | 1029.5 |
| 20260830182042 | 49 | 89 | 0.0 | 0.0 | 0.00 | 0.00 | 0.00 | 85 | 1029.5 |
| 20260830181541 | 49 | 89 | 0.0 | 0.0 | 0.00 | 0.00 | 0.00 | 86 | 1029.6 |
| 20260830181038 | 49 | 89 | 0.0 | 0.0 | 0.00 | 0.00 | 0.00 | 86 | 1029.6 |
| 20260830180802 | 49 | 89 | 0.0 | 0.0 | 0.00 | 0.00 | 0.00 | 86 | 1029.7 |
| 20260830180040 | 49 | 89 | 0.0 | 0.0 | 0.00 | 0.00 | 0.00 | 86 | 1029.5 |
| 20260830175535 | 49 | 89 | 0.0 | 0.0 | 0.00 | 0.00 | 0.00 | 86 | 1029.6 |
| 20260830175034 | 49 | 89 | 0.0 | 0.0 | 0.00 | 0.00 | 0.00 | 86 | 1029.7 |
| 20260830174804 | 49 | 89 | 0.0 | 0.0 | 0.00 | 0.00 | 0.00 | 86 | 1029.7 |
| 20260830174033 | 49 | 89 | 0.0 | 0.0 | 0.00 | 0.00 | 0.00 | 86 | 1029.8 |
| 20260830173530 | 49 | 89 | 0.0 | 0.0 | 0.00 | 0.00 | 0.00 | 86 | 1029.8 |
| 20260830173029 | 49 | 89 | 0.0 | 0.0 | 0.00 | 0.00 | 0.00 | 86 | 1029.9 |
| 20260830172530 | 49 | 89 | 0.0 | 0.0 | 0.00 | 0.00 | 0.00 | 86 | 1029.8 |
| 20260830172251 | 49 | 89 | 0.0 | 0.0 | 0.00 | 0.00 | 0.00 | 86 | 1029.8 |
| 20260830171530 | 49 | 89 | 0.0 | 0.0 | 0.00 | 0.00 | 0.00 | 86 | 1029.8 |
| 20260830171024 | 49 | 89 | 0.0 | 0.0 | 0.00 | 0.00 | 0.00 | 86 | 1029.8 |
| 20260830170526 | 49 | 89 | 0.0 | 0.0 | 0.00 | 0.00 | 0.00 | 86 | 1029.9 |
| 20260830170019 | 49 | 89 | 0.0 | 0.0 | 0.00 | 0.00 | 0.00 | 86 | 1029.9 |
| 20260830165511 | 49 | 89 | 0.0 | 0.0 | 0.00 | 0.00 | 0.00 | 87 | 1030.0 |
| 20260830165005 | 49 | 89 | 0.0 | 0.0 | 0.00 | 0.00 | 0.00 | 87 | 1029.9 |
| 20260830164500 | 49 | 89 | 0.0 | 0.0 | 0.00 | 0.00 | 0.00 | 87 | 1030.0 |
| 20260830164220 | 49 | 89 | 0.0 | 0.0 | 0.00 | 0.00 | 0.00 | 87 | 1030.2 |
| 20260830163450 | 49 | 89 | 0.0 | 0.0 | 0.00 | 0.00 | 0.00 | 87 | 1030.3 |
| 20260830162943 | 49 | 89 | 0.0 | 0.0 | 0.00 | 0.00 | 0.00 | 87 | 1030.3 |
| 20260830162703 | 49 | 89 | 0.0 | 0.0 | 0.00 | 0.00 | 0.00 | 87 | 1030.3 |
| 20260830161929 | 49 | 89 | 0.0 | 0.0 | 0.00 | 0.00 | 0.00 | 87 | 1030.1 |
| 20260830161654 | 49 | 89 | 0.0 | 0.0 | 0.00 | 0.00 | 0.00 | 87 | 1030.1 |
| 20260830160919 | 49 | 89 | 0.0 | 0.0 | 0.00 | 0.00 | 0.00 | 87 | 1030.2 |
| 20260830160412 | 49 | 89 | 0.0 | 0.0 | 0.00 | 0.00 | 0.00 | 87 | 1030.3 |
| 20260830155907 | 49 | 89 | 0.0 | 0.0 | 0.00 | 0.00 | 0.00 | 86 | 1030.3 |
| 20260830155623 | 49 | 89 | 0.0 | 0.0 | 0.00 | 0.00 | 0.00 | 86 | 1030.3 |
| 20260830154906 | 49 | 89 | 0.0 | 0.0 | 0.00 | 0.00 | 0.00 | 86 | 1030.3 |
| 20260830154146 | 49 | 89 | 0.0 | 0.0 | 0.00 | 0.00 | 0.00 | 86 | 1030.3 |
| 20260830153647 | 49 | 89 | 0.0 | 0.0 | 0.00 | 0.00 | 0.00 | 85 | 1030.4 |
| 20260830153146 | 50 | 89 | 0.0 | 0.0 | 0.00 | 0.00 | 0.00 | 85 | 1030.3 |
| 20260830152645 | 50 | 89 | 0.0 | 0.0 | 0.00 | 0.00 | 0.00 | 85 | 1030.3 |
| 20260830152145 | 50 | 89 | 0.0 | 0.0 | 0.00 | 0.00 | 0.00 | 85 | 1030.3 |
| 20260830151907 | 50 | 89 | 0.0 | 0.0 | 0.00 | 0.00 | 0.00 | 85 | 1030.3 |
| 20260830151138 | 50 | 89 | 0.0 | 0.0 | 0.00 | 0.00 | 0.00 | 84 | 1030.3 |
| 20260830150637 | 50 | 89 | 0.0 | 0.0 | 0.00 | 0.00 | 0.00 | 84 | 1030.3 |
| 20260830150619 | 50 | 89 | 0.0 | 0.0 | 0.00 | 0.00 | 0.00 | 84 | 1030.3 |
| 20260830145635 | 50 | 89 | 0.0 | 0.0 | 0.00 | 0.00 | 0.00 | 84 | 1030.3 |
| 20260830145132 | 51 | 89 | 0.0 | 0.0 | 0.00 | 0.00 | 0.00 | 84 | 1030.4 |
| 20260830144631 | 51 | 89 | 0.0 | 0.0 | 0.00 | 0.00 | 0.00 | 83 | 1030.4 |
| 20260830144126 | 51 | 89 | 0.0 | 0.0 | 0.00 | 0.00 | 0.00 | 83 | 1030.4 |
| 20260830143624 | 51 | 89 | 0.0 | 0.0 | 0.00 | 0.00 | 0.00 | 83 | 1030.4 |
| 20260830143126 | 51 | 89 | 0.0 | 0.0 | 0.00 | 0.00 | 0.00 | 83 | 1030.4 |
| 20260830142627 | 51 | 89 | 0.0 | 0.0 | 0.00 | 0.00 | 0.00 | 83 | 1030.4 |
| 20260830142117 | 51 | 89 | 0.0 | 0.0 | 0.00 | 0.00 | 0.00 | 83 | 1030.4 |
| 20260830141612 | 51 | 89 | 0.0 | 0.0 | 0.00 | 0.00 | 0.00 | 83 | 1030.4 |
| 20260830141105 | 51 | 89 | 0.0 | 0.0 | 0.00 | 0.00 | 0.00 | 83 | 1030.3 |
| 20260830140559 | 52 | 89 | 0.0 | 0.0 | 0.00 | 0.00 | 0.00 | 83 | 1030.3 |
| 20260830140318 | 52 | 89 | 0.0 | 0.0 | 0.00 | 0.00 | 0.00 | 83 | 1030.4 |
| 20260830135555 | 52 | 89 | 0.0 | 0.0 | 0.00 | 0.00 | 0.00 | 83 | 1030.5 |
| 20260830135309 | 52 | 89 | 0.0 | 0.0 | 0.00 | 0.00 | 0.00 | 83 | 1030.5 |
| 20260830134535 | 52 | 89 | 0.0 | 0.0 | 0.00 | 0.00 | 0.00 | 82 | 1030.4 |
| 20260830134029 | 52 | 89 | 0.0 | 0.0 | 0.00 | 0.00 | 0.00 | 82 | 1030.4 |
| 20260830133523 | 52 | 89 | 0.0 | 0.0 | 0.00 | 0.00 | 0.00 | 82 | 1030.4 |
| 20260830133017 | 52 | 89 | 0.0 | 0.0 | 0.00 | 0.00 | 0.00 | 82 | 1030.4 |
| 20260830132737 | 52 | 89 | 0.0 | 0.0 | 0.00 | 0.00 | 0.00 | 81 | 1030.4 |
| 20260830132230 | 53 | 89 | 0.0 | 0.0 | 0.00 | 0.00 | 0.00 | 81 | 1030.5 |
| 20260830131459 | 53 | 89 | 0.0 | 0.0 | 0.00 | 0.00 | 0.00 | 80 | 1030.5 |
| 20260830130956 | 53 | 89 | 0.0 | 0.0 | 0.00 | 0.00 | 0.00 | 80 | 1030.5 |
| 20260830130456 | 53 | 89 | 0.0 | 0.0 | 0.00 | 0.00 | 0.00 | 80 | 1030.5 |
| 20260830125956 | 53 | 89 | 0.0 | 0.0 | 0.00 | 0.00 | 0.00 | 80 | 1030.5 |
| 20260830125455 | 54 | 89 | 0.0 | 0.0 | 0.00 | 0.00 | 0.00 | 80 | 1030.4 |
| 20260830124956 | 54 | 89 | 0.0 | 0.0 | 0.00 | 0.00 | 0.00 | 80 | 1030.5 |
| 20260830124454 | 54 | 89 | 0.0 | 0.0 | 0.00 | 0.00 | 0.00 | 80 | 1030.4 |
| 20260830123954 | 54 | 89 | 0.0 | 0.0 | 0.00 | 0.00 | 0.00 | 80 | 1030.4 |
| 20260830123456 | 54 | 89 | 0.0 | 0.0 | 0.00 | 0.00 | 0.00 | 80 | 1030.4 |
| 20260830122951 | 54 | 89 | 0.0 | 0.0 | 0.00 | 0.00 | 0.00 | 80 | 1030.4 |
| 20260830122719 | 54 | 89 | 0.0 | 0.0 | 0.00 | 0.00 | 0.00 | 79 | 1030.3 |
| 20260830121953 | 54 | 89 | 0.0 | 0.0 | 0.00 | 0.00 | 0.00 | 79 | 1030.2 |
| 20260830121449 | 54 | 89 | 0.0 | 0.0 | 0.00 | 0.00 | 0.00 | 79 | 1030.3 |
| 20260830120951 | 55 | 89 | 0.0 | 0.0 | 0.00 | 0.00 | 0.00 | 78 | 1030.3 |
| 20260830120450 | 55 | 89 | 0.0 | 0.0 | 0.00 | 0.00 | 0.00 | 77 | 1030.4 |
| 20260830115951 | 55 | 89 | 0.0 | 0.0 | 0.00 | 0.00 | 0.00 | 77 | 1030.3 |
| 20260830115707 | 55 | 89 | 0.0 | 0.0 | 0.00 | 0.00 | 0.00 | 77 | 1030.3 |
| 20260830114938 | 55 | 89 | 0.0 | 0.0 | 0.00 | 0.00 | 0.00 | 76 | 1030.3 |
| 20260830114432 | 55 | 89 | 0.0 | 0.0 | 0.00 | 0.00 | 0.00 | 75 | 1030.3 |
| 20260830113927 | 56 | 89 | 0.0 | 0.0 | 0.00 | 0.00 | 0.00 | 75 | 1030.3 |
| 20260830113421 | 56 | 89 | 0.0 | 0.0 | 0.00 | 0.00 | 0.00 | 74 | 1030.3 |
| 20260830112916 | 56 | 89 | 0.0 | 0.0 | 0.00 | 0.00 | 0.00 | 73 | 1030.2 |
| 20260830112410 | 56 | 89 | 0.0 | 0.0 | 0.00 | 0.00 | 0.00 | 72 | 1030.2 |
| 20260830111903 | 57 | 89 | 0.0 | 0.0 | 0.00 | 0.00 | 0.00 | 71 | 1030.1 |
| 20260830111359 | 57 | 89 | 0.0 | 0.0 | 0.00 | 0.00 | 0.00 | 71 | 1030.1 |
| 20260830110851 | 57 | 89 | 0.0 | 0.0 | 0.00 | 0.00 | 0.00 | 71 | 1030.0 |
| 20260830110346 | 57 | 89 | 0.0 | 0.0 | 0.00 | 0.00 | 0.00 | 71 | 1029.9 |
| 20260830105840 | 58 | 89 | 0.0 | 0.0 | 0.00 | 0.00 | 0.00 | 70 | 1029.8 |
| 20260830105334 | 58 | 89 | 0.0 | 0.0 | 0.00 | 0.00 | 0.00 | 70 | 1029.8 |
| 20260830105314 | 58 | 89 | 0.0 | 0.0 | 0.00 | 0.00 | 0.00 | 70 | 1029.8 |
| 20260830104321 | 58 | 89 | 0.0 | 0.0 | 0.00 | 0.00 | 0.00 | 69 | 1029.8 |
| 20260830103816 | 58 | 89 | 0.0 | 0.0 | 0.00 | 0.00 | 0.00 | 69 | 1029.7 |
| 20260830103308 | 59 | 89 | 0.0 | 0.0 | 0.00 | 0.00 | 0.00 | 68 | 1029.8 |
| 20260830102802 | 59 | 89 | 0.0 | 0.0 | 0.00 | 0.00 | 0.00 | 67 | 1029.8 |
| 20260830102257 | 59 | 89 | 0.0 | 0.0 | 0.00 | 0.00 | 0.00 | 67 | 1029.7 |
| 20260830101750 | 59 | 89 | 0.0 | 0.0 | 0.00 | 0.00 | 0.00 | 67 | 1029.7 |
| 20260830101246 | 60 | 89 | 0.0 | 0.0 | 0.00 | 0.00 | 0.00 | 67 | 1029.7 |
| 20260830100739 | 60 | 89 | 0.0 | 0.0 | 0.00 | 0.00 | 0.00 | 67 | 1029.6 |
| 20260830100232 | 60 | 89 | 0.0 | 0.0 | 0.00 | 0.00 | 0.00 | 66 | 1029.5 |
| 20260830095726 | 60 | 89 | 0.0 | 0.0 | 0.00 | 0.00 | 0.00 | 65 | 1029.5 |
| 20260830095220 | 60 | 89 | 0.0 | 0.0 | 0.00 | 0.00 | 0.00 | 64 | 1029.4 |
| 20260830094716 | 61 | 89 | 0.0 | 0.0 | 0.00 | 0.00 | 0.00 | 62 | 1029.4 |
| 20260830094208 | 61 | 89 | 0.0 | 0.0 | 0.00 | 0.00 | 0.00 | 61 | 1029.3 |
| 20260830093704 | 62 | 89 | 0.0 | 0.0 | 0.00 | 0.00 | 0.00 | 60 | 1029.3 |
| 20260830093428 | 62 | 89 | 0.0 | 0.0 | 0.00 | 0.00 | 0.00 | 59 | 1029.3 |
| 20260830092650 | 63 | 89 | 0.0 | 0.0 | 0.00 | 0.00 | 0.00 | 57 | 1029.3 |
| 20260830092146 | 63 | 89 | 0.0 | 0.0 | 0.00 | 0.00 | 0.00 | 57 | 1029.2 |
| 20260830091639 | 63 | 89 | 0.0 | 0.0 | 0.00 | 0.00 | 0.00 | 57 | 1029.2 |
| 20260830091406 | 64 | 89 | 0.0 | 0.0 | 0.00 | 0.00 | 0.00 | 56 | 1029.2 |
| 20260830090854 | 64 | 89 | 0.0 | 0.0 | 0.00 | 0.00 | 0.00 | 56 | 1029.1 |
| 20260830090120 | 64 | 89 | 0.0 | 0.0 | 0.00 | 0.00 | 0.00 | 55 | 1029.1 |
| 20260830085617 | 65 | 89 | 0.0 | 0.0 | 0.00 | 0.00 | 0.00 | 54 | 1029.0 |
| 20260830085608 | 65 | 89 | 0.0 | 0.0 | 0.00 | 0.00 | 0.00 | 54 | 1028.9 |
| 20260830084603 | 65 | 89 | 0.0 | 0.0 | 0.00 | 0.00 | 0.00 | 54 | 1028.9 |
| 20260830084056 | 65 | 89 | 0.0 | 0.0 | 0.00 | 0.00 | 0.00 | 53 | 1028.8 |
| 20260830083551 | 65 | 89 | 0.0 | 0.0 | 0.00 | 0.00 | 0.00 | 53 | 1028.8 |
| 20260830083045 | 65 | 89 | 0.0 | 0.0 | 0.00 | 0.00 | 0.00 | 52 | 1028.8 |
| 20260830082805 | 66 | 89 | 0.0 | 0.0 | 0.00 | 0.00 | 0.00 | 51 | 1028.7 |
| 20260830082033 | 66 | 89 | 0.0 | 0.0 | 0.00 | 0.00 | 0.00 | 50 | 1028.6 |
| 20260830081526 | 66 | 89 | 0.0 | 0.0 | 0.00 | 0.00 | 0.00 | 49 | 1028.5 |
| 20260830081020 | 66 | 89 | 0.0 | 0.0 | 0.00 | 0.00 | 0.00 | 48 | 1028.4 |
| 20260830080517 | 67 | 89 | 0.0 | 0.0 | 0.00 | 0.00 | 0.00 | 48 | 1028.3 |
| 20260830080008 | 67 | 89 | 0.0 | 0.0 | 0.00 | 0.00 | 0.00 | 47 | 1028.3 |
| 20260830075503 | 67 | 89 | 0.0 | 0.0 | 0.00 | 0.00 | 0.00 | 46 | 1028.2 |
| 20260830075221 | 68 | 89 | 0.0 | 0.0 | 0.00 | 0.00 | 0.00 | 46 | 1028.1 |
| 20260830074450 | 68 | 89 | 0.0 | 0.0 | 0.00 | 0.00 | 0.00 | 45 | 1028.2 |
| 20260830074204 | 68 | 89 | 0.0 | 0.0 | 0.00 | 0.00 | 0.00 | 45 | 1028.1 |
| 20260830073439 | 69 | 89 | 0.0 | 0.0 | 0.00 | 0.00 | 0.00 | 44 | 1028.1 |
| 20260830072932 | 69 | 89 | 0.0 | 0.0 | 0.00 | 0.00 | 0.00 | 43 | 1028.1 |
| 20260830072427 | 69 | 89 | 0.0 | 0.0 | 0.00 | 0.00 | 0.00 | 42 | 1028.0 |
| 20260830071921 | 70 | 89 | 0.0 | 0.0 | 0.00 | 0.00 | 0.00 | 43 | 1028.0 |
| 20260830071415 | 70 | 89 | 0.0 | 0.0 | 0.00 | 0.00 | 0.00 | 42 | 1028.0 |
| 20260830070909 | 70 | 89 | 0.0 | 0.0 | 0.00 | 0.00 | 0.00 | 42 | 1028.0 |
| 20260830070403 | 71 | 89 | 0.0 | 1.7 | 0.00 | 0.00 | 0.00 | 41 | 1028.0 |
| 20260830070135 | 71 | 89 | 0.0 | 1.7 | 0.00 | 0.00 | 0.00 | 41 | 1027.9 |
| 20260830065350 | 71 | 89 | 0.0 | 1.7 | 0.00 | 0.00 | 0.00 | 40 | 1027.9 |
| 20260830064846 | 71 | 89 | 0.9 | 7.8 | 0.00 | 0.00 | 0.00 | 39 | 1027.9 |
| 20260830064338 | 71 | 89 | 0.9 | 9.6 | 0.00 | 0.00 | 0.00 | 39 | 1027.9 |
| 20260830063832 | 71 | 89 | 0.9 | 10.4 | 0.00 | 0.00 | 0.00 | 40 | 1027.8 |
| 20260830063327 | 71 | 89 | 0.9 | 10.4 | 0.00 | 0.00 | 0.00 | 40 | 1027.8 |
| 20260830062820 | 71 | 89 | 0.0 | 7.8 | 0.00 | 0.00 | 0.00 | 40 | 1027.8 |
| 20260830062316 | 71 | 89 | 0.9 | 7.8 | 0.00 | 0.00 | 0.00 | 40 | 1027.7 |
| 20260830062035 | 72 | 89 | 0.0 | 6.1 | 0.00 | 0.00 | 0.00 | 39 | 1027.7 |
| 20260830061303 | 72 | 89 | 0.0 | 6.1 | 0.00 | 0.00 | 0.00 | 39 | 1027.8 |
| 20260830061018 | 72 | 89 | 0.0 | 6.1 | 0.00 | 0.00 | 0.00 | 38 | 1027.8 |
| 20260830060514 | 72 | 89 | 0.0 | 6.1 | 0.00 | 0.00 | 0.00 | 38 | 1027.8 |
| 20260830055746 | 72 | 89 | 0.0 | 6.1 | 0.00 | 0.00 | 0.00 | 37 | 1027.9 |
| 20260830055239 | 72 | 89 | 0.0 | 6.1 | 0.00 | 0.00 | 0.00 | 37 | 1027.9 |
| 20260830054733 | 72 | 89 | 0.0 | 5.2 | 0.00 | 0.00 | 0.00 | 38 | 1027.9 |